METAR Data
IDs: Format: Raw Decoded Include TAF

Data at: 2117 UTC 06 Dec 2019

KCDN 062115Z AUTO 00000KT 10SM BKN080 OVC120 11/08 A3017 RMK AO2
KCDN 062055Z AUTO 00000KT 10SM FEW070 SCT085 OVC110 11/08 A3018 RMK AO2
KCDN 062035Z AUTO 00000KT 10SM FEW085 BKN110 11/07 A3018 RMK AO2
KCDN 062015Z AUTO 00000KT 10SM FEW065 11/08 A3017 RMK AO2
KCDN 061955Z AUTO 00000KT 9SM -DZ FEW055 BKN065 11/08 A3017 RMK AO2
KCDN 061935Z AUTO 00000KT 9SM FEW048 FEW055 BKN065 11/08 A3018 RMK AO2
KCDN 061915Z AUTO 00000KT 8SM FEW038 SCT045 BKN060 11/08 A3020 RMK AO2
KCDN 061855Z AUTO 30003KT 10SM BKN044 BKN050 BKN070 13/04 A3021 RMK AO2
KCDN 061835Z AUTO 00000KT 10SM SCT043 SCT050 14/05 A3022 RMK AO2
KCDN 061815Z AUTO 00000KT 10SM BKN043 OVC049 14/04 A3021 RMK AO2
KCDN 061755Z AUTO 00000KT 10SM BKN042 OVC050 14/04 A3021 RMK AO2
KCDN 061735Z AUTO 00000KT 10SM BKN043 OVC049 13/04 A3022 RMK AO2
KCDN 061715Z AUTO 00000KT 10SM BKN042 BKN049 BKN110 13/04 A3022 RMK AO2
KCDN 061655Z AUTO 00000KT 10SM SCT110 13/03 A3022 RMK AO2
KCDN 061635Z AUTO 00000KT 10SM FEW110 12/03 A3024 RMK AO2
KCDN 061615Z AUTO 00000KT 10SM SCT120 11/03 A3025 RMK AO2
KCDN 061555Z AUTO 00000KT 10SM BKN110 10/03 A3025 RMK AO2
KCDN 061535Z AUTO 00000KT 10SM BKN110 10/03 A3025 RMK AO2
KCDN 061515Z AUTO 00000KT 10SM FEW120 10/03 A3025 RMK AO2
KCDN 061455Z AUTO 19005KT 10SM CLR 10/02 A3025 RMK AO2
KCDN 061435Z AUTO 00000KT 10SM CLR 09/03 A3025 RMK AO2
KCDN 061415Z AUTO 00000KT 10SM CLR 08/03 A3026 RMK AO2
KCDN 061355Z AUTO 00000KT 10SM CLR 07/02 A3025 RMK AO2
KCDN 061335Z AUTO 00000KT 10SM CLR 05/02 A3025 RMK AO2
KCDN 061315Z AUTO 00000KT 10SM CLR 04/02 A3025 RMK AO2
KCDN 061255Z AUTO 00000KT 10SM SCT110 03/01 A3025 RMK AO2
KCDN 061235Z AUTO 00000KT 10SM BKN110 03/01 A3025 RMK AO2
KCDN 061215Z AUTO 00000KT 10SM OVC120 03/00 A3025 RMK AO2
KCDN 061155Z AUTO 00000KT 10SM SCT120 02/00 A3025 RMK AO2
KCDN 061135Z AUTO 00000KT 10SM FEW120 02/M00 A3024 RMK AO2
KCDN 061115Z AUTO 00000KT 10SM FEW120 02/M00 A3024 RMK AO2
KCDN 061055Z AUTO 00000KT 10SM SCT120 02/M01 A3023 RMK AO2
KCDN 061035Z AUTO 00000KT 10SM SCT120 02/M00 A3024 RMK AO2
KCDN 061015Z AUTO 00000KT 10SM CLR 01/M01 A3024 RMK AO2
KCDN 060955Z AUTO 00000KT 10SM CLR 01/M00 A3023 RMK AO2
KCDN 060935Z AUTO 00000KT 10SM CLR 02/M01 A3023 RMK AO2
KCDN 060915Z AUTO 00000KT 10SM CLR 02/M01 A3023 RMK AO2
KCDN 060855Z AUTO 00000KT 10SM CLR 01/M01 A3022 RMK AO2
KCDN 060835Z AUTO 00000KT 10SM CLR 01/M02 A3022 RMK AO2
KCDN 060815Z AUTO 00000KT 9SM CLR M00/M02 A3022 RMK AO2
KCDN 060755Z AUTO 00000KT 10SM CLR M00/M02 A3023 RMK AO2
KCDN 060735Z AUTO 00000KT 10SM CLR 00/M02 A3023 RMK AO2
KCDN 060715Z AUTO 00000KT 10SM CLR 00/M02 A3022 RMK AO2
KCDN 060655Z AUTO 00000KT 10SM CLR 01/M02 A3022 RMK AO2
KCDN 060635Z AUTO 00000KT 10SM CLR 00/M02 A3021 RMK AO2
KCDN 060615Z AUTO 00000KT 10SM CLR 00/M02 A3021 RMK AO2
KCDN 060555Z AUTO 00000KT 10SM CLR 01/M02 A3022 RMK AO2
KCDN 060535Z AUTO 00000KT 10SM CLR 01/M02 A3022 RMK AO2
KCDN 060515Z AUTO 00000KT 10SM CLR 01/M01 A3022 RMK AO2
KCDN 060455Z AUTO 00000KT 10SM CLR 01/M01 A3022 RMK AO2
KCDN 060435Z AUTO 00000KT 10SM CLR 02/M01 A3022 RMK AO2
KCDN 060415Z AUTO 00000KT 10SM CLR 02/M01 A3022 RMK AO2
KCDN 060355Z AUTO 00000KT 10SM CLR 02/M01 A3022 RMK AO2
KCDN 060335Z AUTO 00000KT 10SM CLR 02/M01 A3021 RMK AO2
KCDN 060315Z AUTO 00000KT 10SM CLR 02/M00 A3021 RMK AO2
KCDN 060255Z AUTO 00000KT 10SM CLR 03/M00 A3020 RMK AO2
KCDN 060235Z AUTO 00000KT 10SM CLR 03/M01 A3020 RMK AO2
KCDN 060215Z AUTO 00000KT 10SM CLR 03/M00 A3020 RMK AO2
KCDN 060155Z AUTO 00000KT 10SM CLR 04/00 A3019 RMK AO2
KCDN 060135Z AUTO 00000KT 10SM CLR 04/00 A3019 RMK AO2
KCDN 060115Z AUTO 00000KT 10SM CLR 06/M00 A3019 RMK AO2
KCDN 060055Z AUTO 00000KT 10SM CLR 05/00 A3018 RMK AO2
KCDN 060035Z AUTO 00000KT 10SM CLR 06/01 A3018 RMK AO2
KCDN 060015Z AUTO 00000KT 10SM CLR 07/01 A3018 RMK AO2
KCDN 052355Z AUTO 00000KT 10SM CLR 08/00 A3017 RMK AO2
KCDN 052335Z AUTO 00000KT 10SM CLR 08/01 A3016 RMK AO2
KCDN 052315Z AUTO 00000KT 10SM CLR 09/01 A3015 RMK AO2
KCDN 052255Z AUTO 00000KT 10SM CLR 10/M00 A3014 RMK AO2
KCDN 052235Z AUTO 00000KT 10SM CLR 10/01 A3013 RMK AO2
KCDN 052215Z AUTO 00000KT 10SM CLR 13/M02 A3013 RMK AO2
KCDN 052155Z AUTO 00000KT 10SM CLR 15/M02 A3012 RMK AO2
KCDN 052135Z AUTO 00000KT 10SM CLR 17/M04 A3011 RMK AO2
KCDN 052115Z AUTO 00000KT 10SM CLR 17/M05 A3010 RMK AO2
KCDN 052055Z AUTO 28004KT 10SM CLR 17/M05 A3010 RMK AO2
KCDN 052035Z AUTO 00000KT 10SM CLR 17/M06 A3010 RMK AO2
KCDN 052015Z AUTO VRB06KT 10SM CLR 17/M07 A3009 RMK AO2
KCDN 051955Z AUTO 32007KT 10SM CLR 18/M06 A3009 RMK AO2
KCDN 051935Z AUTO 00000KT 10SM CLR 18/M06 A3008 RMK AO2
KCDN 051915Z AUTO 00000KT 10SM CLR 17/M06 A3008 RMK AO2
KCDN 051855Z AUTO 28004KT 10SM CLR 17/M05 A3009 RMK AO2
KCDN 051835Z AUTO VRB04KT 10SM CLR 17/M05 A3009 RMK AO2
KCDN 051815Z AUTO 00000KT 10SM CLR 16/M05 A3009 RMK AO2
KCDN 051755Z AUTO 27005KT 10SM CLR 16/M06 A3009 RMK AO2
KCDN 051735Z AUTO 00000KT 10SM CLR 16/M06 A3009 RMK AO2
KCDN 051715Z AUTO VRB03KT 10SM CLR 15/M05 A3010 RMK AO2
KCDN 051655Z AUTO VRB06KT 10SM CLR 16/M05 A3011 RMK AO2
KCDN 051635Z AUTO 35007KT CLR 15/M07 A3011 RMK AO2
KCDN 051615Z AUTO 34008KT 10SM CLR 15/M06 A3012 RMK AO2
KCDN 051555Z AUTO 33008KT 10SM CLR 15/M07 A3012 RMK AO2
KCDN 051535Z AUTO 33009KT 10SM CLR 15/M04 A3011 RMK AO2
KCDN 051515Z AUTO VRB06KT 10SM CLR 14/M02 A3010 RMK AO2
KCDN 051455Z AUTO 00000KT 10SM CLR 13/M02 A3009 RMK AO2
KCDN 051435Z AUTO 00000KT 10SM CLR 12/M02 A3008 RMK AO2
KCDN 051415Z AUTO 33005KT 10SM CLR 11/M02 A3007 RMK AO2
KCDN 051355Z AUTO 00000KT 10SM CLR 10/M02 A3006 RMK AO2
KCDN 051335Z AUTO 31006KT 10SM CLR 09/M02 A3005 RMK AO2
KCDN 051315Z AUTO 00000KT 10SM CLR 08/M02 A3005 RMK AO2
KCDN 051255Z AUTO 30005KT 10SM CLR 08/M02 A3004 RMK AO2
KCDN 051235Z AUTO 32008G13KT 10SM CLR 08/M02 A3002 RMK AO2
KCDN 051215Z AUTO 33007KT 10SM -UP CLR 07/M02 A3002 RMK AO2
KCDN 051155Z AUTO 00000KT 10SM CLR 06/M01 A3001 RMK AO2
KCDN 051135Z AUTO 00000KT 10SM CLR 07/M02 A3001 RMK AO2
KCDN 051115Z AUTO 00000KT 10SM CLR 07/M01 A3000 RMK AO2
KCDN 051055Z AUTO 00000KT 10SM CLR 07/M01 A2999 RMK AO2
KCDN 051035Z AUTO 00000KT 10SM CLR 05/M01 A2998 RMK AO2
KCDN 051015Z AUTO 00000KT 10SM CLR 06/M01 A2996 RMK AO2
KCDN 050955Z AUTO 00000KT 10SM CLR 06/M01 A2995 RMK AO2
KCDN 050935Z AUTO 00000KT 10SM CLR 06/M01 A2994 RMK AO2